createdAt,value
2023-06-15T00:00:15.776Z,91.05
2023-06-15T00:01:07.526Z,90.99
2023-06-15T00:01:47.984Z,91.10
2023-06-15T00:02:19.869Z,91.00
2023-06-15T00:02:52.088Z,91.18
2023-06-15T00:03:24.271Z,91.19
2023-06-15T00:03:56.568Z,91.16
2023-06-15T00:04:28.592Z,91.23
2023-06-15T00:05:00.890Z,91.28
2023-06-15T00:05:32.676Z,91.21
2023-06-15T00:06:04.633Z,91.35
2023-06-15T00:06:36.549Z,91.34
2023-06-15T00:07:08.437Z,91.43
2023-06-15T00:07:40.256Z,91.40
2023-06-15T00:08:12.115Z,91.39
2023-06-15T00:08:43.940Z,91.35
2023-06-15T00:09:16.369Z,91.34
2023-06-15T00:09:48.264Z,91.32
2023-06-15T00:10:20.515Z,91.30
2023-06-15T00:10:52.418Z,91.19
2023-06-15T00:11:24.283Z,91.17
2023-06-15T00:11:56.095Z,91.21
2023-06-15T00:12:28.086Z,91.18
2023-06-15T00:13:00.052Z,91.10
2023-06-15T00:13:32.404Z,91.12
2023-06-15T00:14:04.353Z,91.10
2023-06-15T00:14:37.617Z,91.04
2023-06-15T00:15:10.952Z,91.12
2023-06-15T00:15:42.813Z,91.08
2023-06-15T00:16:15.824Z,91.00
2023-06-15T00:16:48.666Z,91.11
2023-06-15T00:17:22.264Z,91.06
2023-06-15T00:17:54.975Z,90.94
2023-06-15T00:18:26.950Z,91.00
2023-06-15T00:18:59.799Z,91.00
2023-06-15T00:19:31.795Z,91.00
2023-06-15T00:20:10.855Z,90.94
2023-06-15T00:20:42.685Z,91.01
2023-06-15T00:21:16.144Z,90.94
2023-06-15T00:21:48.915Z,90.93
2023-06-15T00:22:20.848Z,90.89
2023-06-15T00:22:52.741Z,90.97
2023-06-15T00:23:28.481Z,90.93
2023-06-15T00:24:00.618Z,90.89
2023-06-15T00:24:32.696Z,90.99
2023-06-15T00:25:06.262Z,90.91
2023-06-15T00:25:38.423Z,90.94
2023-06-15T00:26:10.372Z,90.90
2023-06-15T00:26:43.500Z,90.82
2023-06-15T00:27:15.718Z,90.86
2023-06-15T00:27:47.704Z,90.85
2023-06-15T00:28:19.547Z,90.99
2023-06-15T00:28:51.411Z,91.06
2023-06-15T00:29:23.240Z,90.95
2023-06-15T00:29:55.176Z,91.00
2023-06-15T00:30:27.516Z,91.19
2023-06-15T00:31:01.026Z,91.08
2023-06-15T00:31:34.407Z,91.04
2023-06-15T00:32:07.162Z,91.05
2023-06-15T00:32:39.362Z,91.07
2023-06-15T00:33:11.600Z,91.05
2023-06-15T00:33:43.682Z,91.07
2023-06-15T00:34:15.704Z,91.06
2023-06-15T00:34:47.498Z,91.15
2023-06-15T00:35:19.626Z,91.00
2023-06-15T00:35:51.757Z,91.07
2023-06-15T00:36:23.654Z,91.02
2023-06-15T00:36:55.554Z,91.10
2023-06-15T00:37:27.585Z,91.07
2023-06-15T00:37:59.534Z,91.11
2023-06-15T00:38:31.377Z,90.97
2023-06-15T00:39:03.500Z,91.07
2023-06-15T00:39:35.566Z,91.09
2023-06-15T00:40:08.340Z,91.02
2023-06-15T00:40:40.466Z,90.92
2023-06-15T00:41:12.769Z,90.88
2023-06-15T00:41:44.901Z,90.89
2023-06-15T00:42:16.824Z,90.98
2023-06-15T00:42:48.922Z,90.94
2023-06-15T00:43:20.897Z,90.95
2023-06-15T00:43:53.617Z,90.92
2023-06-15T00:44:25.433Z,90.90
2023-06-15T00:44:57.617Z,90.99
2023-06-15T00:45:29.545Z,91.00
2023-06-15T00:46:02.053Z,90.96
2023-06-15T00:46:35.315Z,90.96
2023-06-15T00:47:07.860Z,90.84
2023-06-15T00:47:42.508Z,90.96
2023-06-15T00:48:15.777Z,90.92
2023-06-15T00:48:48.072Z,90.83
2023-06-15T00:49:22.241Z,90.77
2023-06-15T00:49:54.209Z,90.64
2023-06-15T00:50:30.489Z,90.77
2023-06-15T00:51:02.381Z,90.63
2023-06-15T00:51:35.480Z,90.70
2023-06-15T00:52:08.634Z,90.75
2023-06-15T00:52:43.848Z,90.64
2023-06-15T00:53:15.839Z,90.74
2023-06-15T00:53:48.530Z,90.58
2023-06-15T00:54:24.249Z,90.58
2023-06-15T00:54:56.270Z,90.67
2023-06-15T00:55:28.105Z,90.59
2023-06-15T00:56:00.331Z,90.59
2023-06-15T00:56:32.367Z,90.68
2023-06-15T00:57:05.078Z,90.64
2023-06-15T00:57:36.966Z,90.63
2023-06-15T00:58:10.097Z,90.71
2023-06-15T00:58:42.229Z,90.73
2023-06-15T00:59:14.620Z,90.80
2023-06-15T00:59:46.753Z,90.67
2023-06-15T01:00:19.553Z,90.77
2023-06-15T01:00:54.407Z,90.80
2023-06-15T01:01:26.374Z,90.76
2023-06-15T01:01:59.177Z,90.80
2023-06-15T01:02:35.420Z,90.91
2023-06-15T01:03:07.704Z,91.01
2023-06-15T01:03:41.401Z,90.99
2023-06-15T01:04:13.270Z,91.00
2023-06-15T01:04:45.111Z,90.95
2023-06-15T01:05:18.321Z,91.06
2023-06-15T01:05:53.640Z,91.05
2023-06-15T01:06:32.064Z,91.08
2023-06-15T01:07:05.162Z,91.11
2023-06-15T01:07:41.367Z,91.05
2023-06-15T01:08:16.118Z,90.94
2023-06-15T01:08:53.133Z,91.11
2023-06-15T01:09:26.869Z,90.90
2023-06-15T01:09:59.152Z,91.06
2023-06-15T01:10:32.860Z,91.03
2023-06-15T01:11:05.369Z,91.07
2023-06-15T01:11:39.078Z,91.04
2023-06-15T01:12:13.310Z,90.96
2023-06-15T01:12:51.503Z,90.95
2023-06-15T01:13:23.499Z,90.92
2023-06-15T01:13:58.277Z,90.90
2023-06-15T01:14:30.890Z,91.04
2023-06-15T01:15:03.324Z,90.92
2023-06-15T01:15:35.229Z,90.99
2023-06-15T01:16:14.623Z,91.06
2023-06-15T01:16:53.468Z,90.89
2023-06-15T01:17:26.563Z,90.90
2023-06-15T01:18:00.251Z,90.83
2023-06-15T01:18:35.526Z,90.91
2023-06-15T01:19:22.015Z,90.88
2023-06-15T01:20:06.437Z,90.93
2023-06-15T01:20:40.784Z,90.88
2023-06-15T01:21:14.630Z,90.99
2023-06-15T01:21:46.794Z,90.87
2023-06-15T01:22:41.985Z,90.98
2023-06-15T01:23:26.680Z,91.07
2023-06-15T01:24:19.900Z,90.96
2023-06-15T01:25:04.211Z,91.01
2023-06-15T01:25:54.344Z,91.02
2023-06-15T01:26:29.667Z,91.12
2023-06-15T01:27:05.266Z,91.20
2023-06-15T01:27:40.156Z,91.26
2023-06-15T01:28:14.816Z,91.19
2023-06-15T01:28:50.296Z,91.09
2023-06-15T01:29:22.330Z,91.02
2023-06-15T01:29:55.234Z,91.05
2023-06-15T01:30:30.500Z,91.08
2023-06-15T01:31:03.777Z,91.04
2023-06-15T01:31:36.608Z,91.08
2023-06-15T01:32:09.577Z,91.13
2023-06-15T01:32:41.546Z,90.95
2023-06-15T01:33:13.549Z,91.04
2023-06-15T01:33:52.594Z,90.97
2023-06-15T01:34:24.386Z,90.98
2023-06-15T01:34:56.083Z,90.99
2023-06-15T01:35:27.989Z,90.92
2023-06-15T01:35:59.824Z,91.00
2023-06-15T01:36:31.723Z,90.95
2023-06-15T01:37:03.594Z,90.92
2023-06-15T01:37:35.410Z,90.92
2023-06-15T01:38:07.600Z,91.01
2023-06-15T01:38:40.685Z,90.94
2023-06-15T01:39:12.537Z,90.98
2023-06-15T01:39:44.460Z,90.93
2023-06-15T01:40:17.913Z,90.86
2023-06-15T01:40:52.552Z,90.93
2023-06-15T01:41:26.252Z,90.89
2023-06-15T01:41:58.061Z,90.72
2023-06-15T01:42:30.250Z,90.66
2023-06-15T01:43:03.710Z,90.65
2023-06-15T01:43:37.469Z,90.70
2023-06-15T01:44:09.994Z,90.58
2023-06-15T01:44:42.481Z,90.68
2023-06-15T01:45:16.339Z,90.53
2023-06-15T01:45:50.706Z,90.61
2023-06-15T01:46:23.956Z,90.55
2023-06-15T01:46:56.037Z,90.57
2023-06-15T01:47:28.434Z,90.62
2023-06-15T01:48:00.874Z,90.52
2023-06-15T01:48:33.419Z,90.60
2023-06-15T01:49:05.654Z,90.47
2023-06-15T01:49:39.552Z,90.56
2023-06-15T01:50:12.579Z,90.57
2023-06-15T01:50:44.893Z,90.59
2023-06-15T01:51:17.662Z,90.59
2023-06-15T01:51:49.525Z,90.56
2023-06-15T01:52:22.362Z,90.56
2023-06-15T01:52:54.127Z,90.38
2023-06-15T01:53:26.044Z,90.44
2023-06-15T01:53:58.019Z,90.34
2023-06-15T01:54:30.084Z,90.32
2023-06-15T01:55:02.506Z,90.38
2023-06-15T01:55:35.229Z,90.25
2023-06-15T01:56:07.292Z,90.32
2023-06-15T01:56:40.583Z,90.28
2023-06-15T01:57:12.741Z,90.25
2023-06-15T01:57:44.738Z,90.11
2023-06-15T01:58:17.068Z,90.05
2023-06-15T01:58:49.045Z,90.05
2023-06-15T01:59:21.025Z,90.17
2023-06-15T01:59:55.022Z,90.06
2023-06-15T02:00:27.726Z,90.03
2023-06-15T02:00:59.587Z,90.08
2023-06-15T02:01:31.420Z,89.89
2023-06-15T02:02:03.356Z,89.82
2023-06-15T02:02:35.526Z,89.81
2023-06-15T02:03:07.490Z,89.76
2023-06-15T02:03:39.445Z,89.88
2023-06-15T02:04:11.286Z,89.87
2023-06-15T02:04:43.093Z,89.90
2023-06-15T02:05:15.656Z,89.90
2023-06-15T02:05:47.883Z,89.80
2023-06-15T02:06:19.648Z,89.92
2023-06-15T02:06:51.976Z,89.89
2023-06-15T02:07:23.800Z,89.98
2023-06-15T02:07:56.076Z,89.85
2023-06-15T02:08:27.994Z,89.92
2023-06-15T02:08:59.912Z,89.86
2023-06-15T02:09:32.038Z,89.91
2023-06-15T02:10:04.455Z,89.93
2023-06-15T02:10:36.808Z,89.89
2023-06-15T02:11:08.572Z,89.78
2023-06-15T02:11:42.703Z,89.83
2023-06-15T02:12:14.528Z,89.83
2023-06-15T02:12:46.417Z,89.69
2023-06-15T02:13:18.309Z,89.76
2023-06-15T02:13:50.128Z,89.67
2023-06-15T02:14:24.821Z,89.65
2023-06-15T02:14:58.533Z,89.60
2023-06-15T02:15:30.639Z,89.58
2023-06-15T02:16:02.451Z,89.53
2023-06-15T02:16:34.337Z,89.49
2023-06-15T02:17:06.263Z,89.49
2023-06-15T02:17:40.560Z,89.38
2023-06-15T02:18:17.099Z,89.34
2023-06-15T02:18:49.436Z,89.45
2023-06-15T02:19:21.817Z,89.43
2023-06-15T02:19:53.780Z,89.41
2023-06-15T02:20:26.514Z,89.48
2023-06-15T02:20:58.441Z,89.43
2023-06-15T02:21:30.375Z,89.33
2023-06-15T02:22:02.728Z,89.43
2023-06-15T02:22:34.659Z,89.45
2023-06-15T02:23:06.851Z,89.39
2023-06-15T02:23:38.831Z,89.42
2023-06-15T02:24:10.857Z,89.45
2023-06-15T02:24:43.371Z,89.39
2023-06-15T02:25:15.509Z,89.47
2023-06-15T02:25:47.508Z,89.41
2023-06-15T02:26:19.293Z,89.38
2023-06-15T02:26:51.152Z,89.43
2023-06-15T02:27:22.995Z,89.36
2023-06-15T02:27:55.613Z,89.32
2023-06-15T02:28:27.831Z,89.30
2023-06-15T02:28:59.733Z,89.30
2023-06-15T02:29:31.556Z,89.17
2023-06-15T02:30:03.946Z,89.05
2023-06-15T02:30:35.861Z,89.13
2023-06-15T02:31:07.784Z,89.01
2023-06-15T02:31:39.668Z,88.98
2023-06-15T02:32:32.584Z,88.99
2023-06-15T02:33:06.149Z,89.09
2023-06-15T02:33:38.254Z,88.99
2023-06-15T02:34:10.408Z,89.14
2023-06-15T02:34:43.957Z,89.18
2023-06-15T02:35:16.015Z,89.23
2023-06-15T02:35:48.056Z,89.13
2023-06-15T02:36:20.320Z,89.17
2023-06-15T02:36:56.681Z,89.34
2023-06-15T02:37:28.526Z,89.17
2023-06-15T02:38:00.362Z,89.49
2023-06-15T02:38:32.092Z,89.42
2023-06-15T02:39:04.173Z,89.42
2023-06-15T02:39:36.036Z,89.43
2023-06-15T02:40:09.483Z,89.48
2023-06-15T02:40:41.271Z,89.64
2023-06-15T02:41:13.128Z,89.51
2023-06-15T02:41:44.955Z,89.63
2023-06-15T02:42:16.806Z,89.64
2023-06-15T02:42:48.865Z,89.59
2023-06-15T02:43:20.817Z,89.50
2023-06-15T02:43:52.964Z,89.37
2023-06-15T02:44:25.130Z,89.53
2023-06-15T02:44:56.972Z,89.54
2023-06-15T02:45:28.826Z,89.66
2023-06-15T02:46:00.602Z,89.48
2023-06-15T02:46:32.325Z,89.51
2023-06-15T02:47:04.201Z,89.61
2023-06-15T02:47:36.659Z,89.54
2023-06-15T02:48:09.280Z,89.55
2023-06-15T02:48:41.720Z,89.59
2023-06-15T02:49:13.776Z,89.45
2023-06-15T02:49:45.592Z,89.39
2023-06-15T02:50:18.625Z,89.49
2023-06-15T02:50:50.669Z,89.38
2023-06-15T02:51:22.580Z,89.39
2023-06-15T02:51:54.556Z,89.34
2023-06-15T02:52:27.534Z,89.37
2023-06-15T02:52:59.490Z,89.12
2023-06-15T02:53:31.343Z,89.09
2023-06-15T02:54:03.416Z,88.93
2023-06-15T02:54:37.449Z,89.17
2023-06-15T02:55:09.561Z,88.93
2023-06-15T02:55:42.175Z,88.96
2023-06-15T02:56:18.903Z,89.03
2023-06-15T02:56:51.796Z,89.02
2023-06-15T02:57:24.394Z,88.83
2023-06-15T02:57:56.559Z,88.91
2023-06-15T02:58:33.004Z,88.87
2023-06-15T02:59:06.239Z,88.90
2023-06-15T02:59:38.336Z,88.88
2023-06-15T03:00:13.431Z,88.93
2023-06-15T03:00:47.633Z,88.89
2023-06-15T03:01:19.504Z,88.82
2023-06-15T03:01:54.422Z,88.87
2023-06-15T03:02:26.930Z,88.87
2023-06-15T03:02:59.318Z,88.69
2023-06-15T03:03:31.136Z,88.86
2023-06-15T03:04:03.803Z,88.96
2023-06-15T03:04:45.009Z,88.72
2023-06-15T03:05:19.053Z,88.79
2023-06-15T03:05:52.625Z,88.76
2023-06-15T03:06:25.483Z,88.78
2023-06-15T03:06:57.954Z,88.79
2023-06-15T03:07:30.951Z,88.92
2023-06-15T03:08:02.894Z,88.87
2023-06-15T03:08:35.732Z,88.90
2023-06-15T03:09:07.870Z,88.81
2023-06-15T03:09:39.876Z,88.93
2023-06-15T03:10:11.875Z,88.82
2023-06-15T03:10:43.681Z,88.66
2023-06-15T03:11:15.481Z,88.69
2023-06-15T03:11:47.387Z,88.72
2023-06-15T03:12:19.966Z,88.71
2023-06-15T03:12:51.747Z,88.74
2023-06-15T03:13:23.918Z,88.79
2023-06-15T03:13:55.952Z,88.79
2023-06-15T03:14:29.749Z,88.85
2023-06-15T03:15:02.388Z,88.87
2023-06-15T03:15:35.762Z,89.03
2023-06-15T03:16:07.868Z,88.74
2023-06-15T03:16:40.286Z,88.89
2023-06-15T03:17:13.627Z,88.91
2023-06-15T03:17:45.422Z,88.99
2023-06-15T03:18:17.394Z,88.88
2023-06-15T03:18:49.597Z,89.04
2023-06-15T03:19:21.420Z,89.13
2023-06-15T03:19:53.313Z,89.01
2023-06-15T03:20:25.681Z,89.03
2023-06-15T03:20:58.205Z,89.06
2023-06-15T03:21:30.856Z,88.98
2023-06-15T03:22:03.585Z,89.12
2023-06-15T03:22:35.994Z,89.08
2023-06-15T03:23:11.597Z,89.09
2023-06-15T03:23:45.339Z,89.18
2023-06-15T03:24:18.772Z,89.09
2023-06-15T03:24:51.225Z,89.11
2023-06-15T03:25:23.239Z,89.04
2023-06-15T03:25:55.111Z,89.05
2023-06-15T03:26:30.040Z,89.12
2023-06-15T03:27:04.071Z,89.04
2023-06-15T03:27:36.188Z,89.07
2023-06-15T03:28:08.164Z,89.10
2023-06-15T03:28:40.620Z,89.15
2023-06-15T03:29:14.113Z,89.15
2023-06-15T03:29:50.163Z,89.18
2023-06-15T03:30:21.976Z,89.23
2023-06-15T03:30:57.626Z,89.25
2023-06-15T03:31:34.098Z,89.28
2023-06-15T03:32:07.481Z,89.19
2023-06-15T03:32:39.423Z,89.32
2023-06-15T03:33:11.338Z,89.46
2023-06-15T03:33:44.384Z,89.41
2023-06-15T03:34:16.407Z,89.39
2023-06-15T03:34:48.460Z,89.42
2023-06-15T03:35:21.819Z,89.46
2023-06-15T03:35:53.994Z,89.56
2023-06-15T03:36:30.241Z,89.51
2023-06-15T03:37:02.394Z,89.51
2023-06-15T03:37:34.286Z,89.77
2023-06-15T03:38:06.913Z,89.69
2023-06-15T03:38:38.690Z,89.75
2023-06-15T03:39:10.711Z,89.66
2023-06-15T03:39:42.760Z,89.82
2023-06-15T03:40:14.569Z,89.73
2023-06-15T03:40:46.380Z,89.73
2023-06-15T03:41:18.143Z,89.68
2023-06-15T03:41:50.173Z,89.78
2023-06-15T03:42:22.043Z,89.81
2023-06-15T03:42:53.830Z,89.84
2023-06-15T03:43:25.664Z,89.79
2023-06-15T03:43:57.843Z,89.91
2023-06-15T03:44:29.643Z,89.86
2023-06-15T03:45:01.494Z,89.89
2023-06-15T03:45:33.390Z,89.94
2023-06-15T03:46:06.622Z,89.92
2023-06-15T03:46:38.532Z,90.00
2023-06-15T03:47:10.435Z,90.09
2023-06-15T03:47:42.187Z,90.16
2023-06-15T03:48:13.992Z,90.17
2023-06-15T03:48:45.970Z,90.21
2023-06-15T03:49:17.717Z,90.23
2023-06-15T03:49:49.540Z,90.42
2023-06-15T03:50:21.388Z,90.47
2023-06-15T03:50:53.166Z,90.46
2023-06-15T03:51:25.116Z,90.70
2023-06-15T03:51:56.876Z,90.71
2023-06-15T03:52:28.924Z,90.85
2023-06-15T03:53:02.445Z,90.86
2023-06-15T03:53:34.217Z,91.06
2023-06-15T03:54:06.355Z,91.14
2023-06-15T03:54:38.134Z,91.30
2023-06-15T03:55:09.924Z,91.34
2023-06-15T03:55:41.890Z,91.22
2023-06-15T03:56:13.777Z,91.37
2023-06-15T03:56:45.464Z,91.46
2023-06-15T03:57:17.350Z,91.68
2023-06-15T03:57:49.304Z,91.62
2023-06-15T03:58:21.068Z,91.71
2023-06-15T03:58:52.793Z,91.80
2023-06-15T03:59:24.712Z,91.97
2023-06-15T03:59:56.508Z,91.88
2023-06-15T04:00:28.284Z,92.05
2023-06-15T04:01:01.540Z,92.04
2023-06-15T04:01:33.711Z,92.14
2023-06-15T04:02:05.946Z,92.15
2023-06-15T04:02:37.717Z,92.30
2023-06-15T04:03:09.906Z,92.43
2023-06-15T04:03:41.984Z,92.45
2023-06-15T04:04:15.702Z,92.51
2023-06-15T04:04:47.780Z,92.47
2023-06-15T04:05:20.927Z,92.62
2023-06-15T04:05:53.684Z,92.69
2023-06-15T04:06:25.656Z,92.74
2023-06-15T04:06:58.239Z,92.65
2023-06-15T04:07:30.037Z,92.84
2023-06-15T04:08:02.184Z,92.85
2023-06-15T04:08:36.233Z,92.90
2023-06-15T04:09:08.040Z,92.93
2023-06-15T04:09:40.020Z,93.11
2023-06-15T04:10:13.044Z,93.04
2023-06-15T04:10:45.092Z,93.13
2023-06-15T04:11:17.346Z,93.18
2023-06-15T04:11:49.294Z,93.26
2023-06-15T04:12:22.182Z,93.30
2023-06-15T04:12:54.012Z,93.30
2023-06-15T04:13:26.439Z,93.30
2023-06-15T04:13:58.379Z,93.34
2023-06-15T04:14:31.251Z,93.41
2023-06-15T04:15:03.294Z,93.41
2023-06-15T04:15:35.229Z,93.42
2023-06-15T04:16:07.200Z,93.49
2023-06-15T04:16:39.063Z,93.54
2023-06-15T04:17:10.974Z,93.52
2023-06-15T04:17:43.019Z,93.53
2023-06-15T04:18:14.822Z,93.59
2023-06-15T04:18:46.636Z,93.60
2023-06-15T04:19:23.098Z,93.54
2023-06-15T04:19:55.200Z,93.66
2023-06-15T04:20:31.760Z,93.67
2023-06-15T04:21:05.313Z,93.73
2023-06-15T04:21:40.043Z,93.76
2023-06-15T04:22:12.297Z,93.86
2023-06-15T04:22:44.263Z,93.82
2023-06-15T04:23:16.278Z,93.85
2023-06-15T04:23:48.313Z,93.97
2023-06-15T04:24:20.174Z,93.99
2023-06-15T04:24:52.284Z,94.00
2023-06-15T04:25:24.358Z,94.00
2023-06-15T04:25:58.936Z,94.03
2023-06-15T04:26:30.856Z,94.04
2023-06-15T04:27:02.931Z,94.06
2023-06-15T04:27:36.045Z,94.08
2023-06-15T04:28:11.296Z,94.09
2023-06-15T04:28:46.136Z,93.97
2023-06-15T04:29:19.740Z,93.93
2023-06-15T04:29:53.549Z,94.06
2023-06-15T04:30:25.720Z,94.14
2023-06-15T04:31:10.566Z,94.23
2023-06-15T04:31:42.790Z,94.16
2023-06-15T04:32:15.148Z,94.25
2023-06-15T04:32:47.060Z,94.32
2023-06-15T04:33:20.410Z,94.29
2023-06-15T04:34:00.342Z,94.35
2023-06-15T04:34:32.477Z,94.38
2023-06-15T04:35:06.744Z,94.44
2023-06-15T04:35:40.958Z,94.44
2023-06-15T04:36:13.386Z,94.51
2023-06-15T04:36:45.237Z,94.47
2023-06-15T04:37:17.560Z,94.49
2023-06-15T04:37:51.551Z,94.35
2023-06-15T04:38:23.364Z,94.36
2023-06-15T04:38:56.211Z,94.32
2023-06-15T04:39:28.658Z,94.30
2023-06-15T04:40:00.454Z,94.31
2023-06-15T04:40:32.745Z,94.25
2023-06-15T04:41:08.666Z,94.24
2023-06-15T04:41:40.566Z,94.21
2023-06-15T04:42:13.371Z,94.19
2023-06-15T04:42:45.264Z,94.19
2023-06-15T04:43:17.237Z,94.23
2023-06-15T04:43:50.406Z,94.29
2023-06-15T04:44:22.177Z,94.28
2023-06-15T04:44:54.154Z,94.33
2023-06-15T04:45:26.395Z,94.37
2023-06-15T04:45:58.324Z,94.18
2023-06-15T04:46:30.605Z,94.10
2023-06-15T04:47:05.222Z,94.16
2023-06-15T04:47:37.250Z,94.11
2023-06-15T04:48:09.529Z,94.21
2023-06-15T04:48:45.391Z,94.10
2023-06-15T04:49:18.356Z,94.03
2023-06-15T04:49:50.276Z,93.98
2023-06-15T04:50:22.357Z,94.05
2023-06-15T04:50:57.169Z,93.98
2023-06-15T04:51:31.096Z,93.98
2023-06-15T04:52:03.472Z,93.90
2023-06-15T04:52:36.736Z,93.84
2023-06-15T04:53:09.166Z,93.71
2023-06-15T04:53:44.843Z,93.78
2023-06-15T04:54:16.802Z,93.78
2023-06-15T04:54:49.264Z,93.77
2023-06-15T04:55:21.256Z,93.75
2023-06-15T04:55:53.892Z,93.72
2023-06-15T04:56:27.483Z,93.76
2023-06-15T04:56:59.646Z,93.85
2023-06-15T04:57:31.736Z,93.83
2023-06-15T04:58:05.198Z,93.77
2023-06-15T04:58:37.214Z,93.87
2023-06-15T04:59:09.373Z,93.88
2023-06-15T04:59:41.435Z,93.85
2023-06-15T05:00:14.199Z,93.83
2023-06-15T05:00:46.251Z,93.87
2023-06-15T05:01:18.274Z,93.84
2023-06-15T05:01:50.125Z,93.82
2023-06-15T05:02:21.925Z,93.99
2023-06-15T05:02:53.939Z,93.91
2023-06-15T05:03:26.305Z,93.95
2023-06-15T05:03:59.344Z,93.88
2023-06-15T05:04:31.231Z,93.84
2023-06-15T05:05:03.659Z,93.79
2023-06-15T05:05:35.704Z,93.85
2023-06-15T05:06:08.439Z,93.83
2023-06-15T05:06:40.279Z,93.92
2023-06-15T05:07:12.157Z,93.97
2023-06-15T05:07:43.874Z,94.07
2023-06-15T05:08:16.239Z,93.94
2023-06-15T05:08:48.491Z,93.95
2023-06-15T05:09:20.449Z,93.99
2023-06-15T05:09:52.298Z,94.03
2023-06-15T05:10:37.244Z,94.00
2023-06-15T05:11:16.025Z,93.99
2023-06-15T05:11:48.238Z,94.01
2023-06-15T05:12:20.550Z,93.97
2023-06-15T05:12:52.750Z,94.03
2023-06-15T05:13:25.847Z,93.92
2023-06-15T05:13:58.294Z,93.96
2023-06-15T05:14:30.256Z,94.03
2023-06-15T05:15:02.096Z,93.89
2023-06-15T05:15:35.538Z,93.93
2023-06-15T05:16:07.520Z,93.89
2023-06-15T05:16:39.454Z,93.93
2023-06-15T05:17:11.632Z,93.93
2023-06-15T05:17:44.465Z,94.00
2023-06-15T05:18:16.282Z,93.85
2023-06-15T05:18:47.982Z,93.90
2023-06-15T05:19:21.118Z,93.95
2023-06-15T05:19:53.060Z,93.93
2023-06-15T05:20:25.295Z,93.91
2023-06-15T05:20:57.397Z,93.94
2023-06-15T05:21:29.280Z,93.84
2023-06-15T05:22:02.204Z,93.97
2023-06-15T05:22:34.014Z,93.95
2023-06-15T05:23:06.215Z,94.00
2023-06-15T05:23:38.065Z,94.10
2023-06-15T05:24:10.151Z,94.12
2023-06-15T05:24:41.944Z,94.02
2023-06-15T05:25:13.986Z,94.11
2023-06-15T05:25:46.639Z,94.12
2023-06-15T05:26:54.978Z,94.07
2023-06-15T05:27:26.779Z,94.16
2023-06-15T05:27:58.676Z,94.08
2023-06-15T05:28:30.590Z,94.19
2023-06-15T05:29:02.478Z,94.23
2023-06-15T05:29:34.530Z,94.22
2023-06-15T05:30:12.370Z,94.29
2023-06-15T05:30:44.258Z,94.32
2023-06-15T05:31:16.304Z,94.40
2023-06-15T05:31:48.185Z,94.43
2023-06-15T05:32:20.434Z,94.43
2023-06-15T05:32:52.571Z,94.44
2023-06-15T05:33:24.539Z,94.53
2023-06-15T05:33:56.519Z,94.67
2023-06-15T05:34:28.512Z,94.66
2023-06-15T05:35:00.377Z,94.72
2023-06-15T05:35:32.189Z,94.87
2023-06-15T05:36:15.004Z,94.94
2023-06-15T05:36:57.351Z,95.01
2023-06-15T05:37:30.146Z,94.93
2023-06-15T05:38:01.994Z,95.06
2023-06-15T05:38:34.038Z,95.07
2023-06-15T05:39:06.843Z,95.08
2023-06-15T05:39:38.747Z,95.06
2023-06-15T05:40:10.999Z,95.10
2023-06-15T05:40:42.735Z,95.11
2023-06-15T05:41:14.485Z,95.17
2023-06-15T05:41:46.460Z,95.02
2023-06-15T05:42:18.423Z,95.12
2023-06-15T05:42:50.871Z,95.10
2023-06-15T05:43:22.847Z,95.15
2023-06-15T05:43:54.937Z,95.10
2023-06-15T05:44:26.720Z,95.18
2023-06-15T05:44:58.700Z,95.15
2023-06-15T05:45:30.960Z,95.08
2023-06-15T05:46:02.834Z,95.19
2023-06-15T05:46:34.644Z,95.17
2023-06-15T05:47:07.047Z,95.05
2023-06-15T05:47:39.171Z,95.07
2023-06-15T05:48:11.049Z,95.02
2023-06-15T05:48:43.341Z,94.96
2023-06-15T05:49:15.924Z,94.96
2023-06-15T05:49:47.698Z,94.82
2023-06-15T05:50:19.593Z,94.71
2023-06-15T05:50:51.452Z,94.77
2023-06-15T05:51:23.258Z,94.82
2023-06-15T05:51:55.073Z,94.90
2023-06-15T05:52:27.995Z,94.93
2023-06-15T05:53:01.918Z,94.94
2023-06-15T05:53:33.801Z,94.96
2023-06-15T05:54:05.667Z,95.06
2023-06-15T05:54:37.741Z,95.11
2023-06-15T05:55:09.627Z,95.14
2023-06-15T05:55:41.546Z,95.17
2023-06-15T05:56:13.509Z,95.19
2023-06-15T05:56:45.793Z,95.25
2023-06-15T05:57:18.091Z,95.21
2023-06-15T05:57:49.937Z,95.32
2023-06-15T05:58:21.720Z,95.33
2023-06-15T05:58:54.570Z,95.28
2023-06-15T05:59:33.300Z,95.33
2023-06-15T06:00:07.240Z,95.22
2023-06-15T06:00:39.213Z,95.09
2023-06-15T06:01:11.012Z,95.03
2023-06-15T06:01:42.908Z,95.10
2023-06-15T06:02:14.759Z,95.05
2023-06-15T06:02:46.569Z,95.24
2023-06-15T06:03:18.441Z,95.26
2023-06-15T06:03:50.246Z,95.21
2023-06-15T06:04:22.057Z,95.15
2023-06-15T06:04:53.920Z,95.11
2023-06-15T06:05:25.785Z,95.27
2023-06-15T06:05:57.641Z,95.27
2023-06-15T06:06:29.725Z,95.38
2023-06-15T06:07:05.941Z,95.52
2023-06-15T06:07:37.795Z,95.51
2023-06-15T06:08:09.628Z,95.56
2023-06-15T06:08:41.620Z,95.52
2023-06-15T06:09:13.553Z,95.52
2023-06-15T06:09:45.297Z,95.54
2023-06-15T06:10:20.513Z,95.44
2023-06-15T06:10:52.434Z,95.44
2023-06-15T06:11:24.272Z,95.49
2023-06-15T06:11:56.482Z,95.49
2023-06-15T06:12:28.294Z,95.57
2023-06-15T06:13:00.229Z,95.65
2023-06-15T06:13:32.038Z,95.68
2023-06-15T06:14:03.817Z,95.71
2023-06-15T06:14:35.856Z,95.73
2023-06-15T06:15:08.596Z,95.79
2023-06-15T06:15:41.888Z,95.88
2023-06-15T06:16:15.306Z,95.87
2023-06-15T06:16:47.256Z,95.75
2023-06-15T06:17:39.762Z,95.80
2023-06-15T06:18:10.987Z,95.79
2023-06-15T06:18:42.900Z,95.69
2023-06-15T06:19:14.724Z,95.81
2023-06-15T06:19:48.612Z,95.81
2023-06-15T06:20:20.397Z,95.82
2023-06-15T06:20:52.259Z,95.90
2023-06-15T06:21:24.306Z,95.91
2023-06-15T06:21:56.044Z,95.88
2023-06-15T06:22:28.027Z,96.09
2023-06-15T06:22:59.785Z,95.96
2023-06-15T06:23:33.581Z,95.96
2023-06-15T06:24:05.664Z,96.01
2023-06-15T06:24:37.901Z,95.87
2023-06-15T06:25:09.826Z,95.88
2023-06-15T06:25:41.787Z,95.82
2023-06-15T06:26:13.683Z,95.79
2023-06-15T06:26:45.834Z,95.73
2023-06-15T06:27:17.683Z,95.80
2023-06-15T06:27:49.578Z,95.71
2023-06-15T06:28:21.407Z,95.77
2023-06-15T06:28:53.566Z,95.75
2023-06-15T06:29:25.437Z,95.82
2023-06-15T06:29:58.797Z,95.82
2023-06-15T06:30:31.030Z,95.83
2023-06-15T06:31:02.849Z,95.88
2023-06-15T06:31:34.650Z,95.91
2023-06-15T06:32:06.884Z,95.91
2023-06-15T06:32:38.740Z,95.99
2023-06-15T06:33:10.682Z,96.03
2023-06-15T06:33:43.023Z,96.02
2023-06-15T06:34:14.791Z,95.95
2023-06-15T06:34:47.202Z,96.08
2023-06-15T06:35:19.362Z,96.15
2023-06-15T06:35:51.443Z,96.07
2023-06-15T06:36:23.403Z,96.18
2023-06-15T06:36:57.082Z,96.25
2023-06-15T06:37:33.176Z,96.20
2023-06-15T06:38:05.115Z,96.33
2023-06-15T06:38:43.264Z,96.29
2023-06-15T06:39:25.053Z,96.13
2023-06-15T06:39:56.832Z,96.07
2023-06-15T06:40:29.350Z,96.05
2023-06-15T06:41:01.189Z,95.92
2023-06-15T06:41:33.307Z,95.92
2023-06-15T06:42:06.653Z,95.92
2023-06-15T06:42:38.527Z,96.06
2023-06-15T06:43:11.078Z,95.98
2023-06-15T06:43:42.915Z,95.88
2023-06-15T06:44:16.234Z,95.88
2023-06-15T06:44:48.197Z,95.97
2023-06-15T06:45:20.325Z,95.90
2023-06-15T06:45:52.727Z,95.78
2023-06-15T06:46:24.776Z,95.72
2023-06-15T06:46:57.037Z,95.73
2023-06-15T06:47:28.859Z,95.68
2023-06-15T06:48:00.857Z,95.72
2023-06-15T06:48:33.547Z,95.61
2023-06-15T06:49:05.624Z,95.61
2023-06-15T06:49:37.483Z,95.57
2023-06-15T06:50:09.779Z,95.57
2023-06-15T06:50:41.592Z,95.62
2023-06-15T06:51:13.436Z,95.56
2023-06-15T06:51:45.293Z,95.57
2023-06-15T06:52:17.070Z,95.55
2023-06-15T06:52:49.017Z,95.52
2023-06-15T06:53:22.876Z,95.41
2023-06-15T06:53:54.780Z,95.32
2023-06-15T06:54:26.578Z,95.35
2023-06-15T06:54:58.426Z,95.26
2023-06-15T06:55:30.296Z,95.23
2023-06-15T06:56:02.128Z,95.20
2023-06-15T06:56:34.050Z,95.23
2023-06-15T06:57:06.365Z,95.12
2023-06-15T06:57:39.209Z,95.24
2023-06-15T06:58:11.410Z,95.22
2023-06-15T06:58:43.361Z,95.20
2023-06-15T06:59:20.505Z,95.33
2023-06-15T06:59:57.470Z,95.13
2023-06-15T07:00:29.686Z,95.17
2023-06-15T07:01:01.452Z,95.23
2023-06-15T07:01:33.473Z,94.94
2023-06-15T07:02:06.311Z,95.02
2023-06-15T07:02:38.446Z,94.99
2023-06-15T07:03:10.755Z,94.92
2023-06-15T07:03:42.830Z,94.96
2023-06-15T07:04:14.928Z,94.90